createdAt,value
2022-11-15T00:02:05.643Z,10.93
2022-11-15T00:04:32.105Z,13.03
2022-11-15T00:06:58.560Z,11.87
2022-11-15T00:09:25.050Z,12.17
2022-11-15T00:11:52.958Z,12.87
2022-11-15T00:14:19.943Z,13.30
2022-11-15T00:16:46.658Z,13.53
2022-11-15T00:19:13.657Z,12.30
2022-11-15T00:21:41.548Z,12.03
2022-11-15T00:24:08.810Z,12.60
2022-11-15T00:26:36.994Z,12.53
2022-11-15T00:29:03.361Z,12.83
2022-11-15T00:31:29.791Z,13.10
2022-11-15T00:33:56.905Z,13.17
2022-11-15T00:36:25.641Z,13.20
2022-11-15T00:38:52.528Z,13.20
2022-11-15T00:41:20.644Z,13.47
2022-11-15T00:43:47.053Z,12.60
2022-11-15T00:46:13.619Z,12.77
2022-11-15T00:48:40.255Z,13.20
2022-11-15T00:51:06.963Z,12.47
2022-11-15T00:53:33.962Z,12.53
2022-11-15T00:56:00.579Z,12.97
2022-11-15T00:58:28.174Z,12.27
2022-11-15T01:00:55.668Z,13.47
2022-11-15T01:03:22.851Z,13.40
2022-11-15T01:05:50.436Z,13.03
2022-11-15T01:08:28.881Z,13.57
2022-11-15T01:10:56.548Z,13.77
2022-11-15T01:13:24.351Z,12.63
2022-11-15T01:15:56.426Z,14.57
2022-11-15T01:21:29.462Z,13.73
2022-11-15T01:23:56.989Z,13.03
2022-11-15T01:26:24.433Z,14.23
2022-11-15T01:28:50.933Z,14.13
2022-11-15T01:31:20.222Z,13.13
2022-11-15T01:33:47.918Z,13.37
2022-11-15T01:36:17.158Z,14.60
2022-11-15T01:38:45.248Z,13.50
2022-11-15T01:41:19.643Z,13.27
2022-11-15T01:43:49.541Z,14.00
2022-11-15T01:46:30.114Z,13.20
2022-11-15T01:48:59.028Z,14.13
2022-11-15T01:51:26.844Z,11.13
2022-11-15T01:53:56.422Z,13.93
2022-11-15T01:56:26.980Z,13.37
2022-11-15T01:58:54.306Z,12.83
2022-11-15T02:01:20.804Z,11.80
2022-11-15T02:04:00.159Z,11.47
2022-11-15T02:06:26.767Z,15.63
2022-11-15T02:08:53.994Z,12.97
2022-11-15T02:11:20.841Z,12.87
2022-11-15T02:13:47.540Z,11.60
2022-11-15T02:16:24.267Z,11.77
2022-11-15T02:19:14.177Z,13.63
2022-11-15T02:21:42.911Z,12.77
2022-11-15T02:24:40.480Z,15.10
2022-11-15T02:27:34.266Z,13.03
2022-11-15T02:30:22.639Z,12.20
2022-11-15T02:33:04.966Z,11.97
2022-11-15T02:36:00.510Z,11.80
2022-11-15T02:38:48.689Z,12.83
2022-11-15T02:41:19.408Z,13.07
2022-11-15T02:44:08.756Z,11.37
2022-11-15T02:47:14.091Z,12.70
2022-11-15T02:49:47.166Z,11.47
2022-11-15T02:52:24.438Z,11.30
2022-11-15T02:54:55.888Z,13.00
2022-11-15T02:58:04.739Z,12.70
2022-11-15T03:00:38.914Z,11.07
2022-11-15T03:03:39.847Z,11.07
2022-11-15T03:06:48.387Z,9.73
2022-11-15T03:09:25.430Z,11.67
2022-11-15T03:11:58.615Z,10.97
2022-11-15T03:14:32.443Z,12.77
2022-11-15T03:17:05.119Z,12.83
2022-11-15T03:19:42.666Z,11.67
2022-11-15T03:22:12.819Z,11.93
2022-11-15T03:24:39.749Z,10.80
2022-11-15T03:27:10.662Z,12.80
2022-11-15T03:29:49.859Z,11.70
2022-11-15T03:32:20.422Z,12.17
2022-11-15T03:34:51.153Z,12.20
2022-11-15T03:37:18.686Z,13.23
2022-11-15T03:39:45.338Z,12.43
2022-11-15T03:42:28.275Z,10.67
2022-11-15T03:45:03.826Z,12.30
2022-11-15T03:47:34.187Z,10.47
2022-11-15T03:50:03.938Z,9.57
2022-11-15T03:52:33.774Z,13.10
2022-11-15T03:55:02.349Z,12.93
2022-11-15T03:57:29.185Z,9.93
2022-11-15T03:59:55.532Z,12.87
2022-11-15T04:02:21.890Z,11.63
2022-11-15T04:04:48.341Z,10.23
2022-11-15T04:07:14.780Z,11.23
2022-11-15T04:10:00.645Z,9.47
2022-11-15T04:12:32.706Z,11.13
2022-11-15T04:15:10.971Z,10.33
2022-11-15T04:17:38.409Z,9.60
2022-11-15T04:20:48.787Z,9.63
2022-11-15T04:23:38.624Z,10.37
2022-11-15T04:26:08.014Z,9.83
2022-11-15T04:28:34.774Z,9.47
2022-11-15T04:31:01.664Z,11.27
2022-11-15T04:33:27.982Z,11.90
2022-11-15T04:36:13.101Z,10.53
2022-11-15T04:38:39.431Z,9.30
2022-11-15T04:41:05.804Z,11.63
2022-11-15T04:43:32.475Z,9.70
2022-11-15T04:45:59.159Z,9.90
2022-11-15T04:48:25.555Z,11.70
2022-11-15T04:50:52.104Z,9.67
2022-11-15T04:53:18.475Z,10.70
2022-11-15T04:55:47.816Z,10.37
2022-11-15T04:58:14.515Z,11.00
2022-11-15T05:00:41.024Z,9.87
2022-11-15T05:03:26.356Z,9.17
2022-11-15T05:05:52.706Z,9.17
2022-11-15T05:08:19.279Z,11.93
2022-11-15T05:10:45.908Z,10.60
2022-11-15T05:13:12.285Z,8.90
2022-11-15T05:15:38.720Z,10.17
2022-11-15T05:18:05.195Z,9.77
2022-11-15T05:20:31.613Z,9.17
2022-11-15T05:22:57.986Z,10.40
2022-11-15T05:25:24.514Z,9.07
2022-11-15T05:27:51.150Z,8.80
2022-11-15T05:30:17.782Z,8.23
2022-11-15T05:32:44.666Z,9.67
2022-11-15T05:35:16.546Z,8.73
2022-11-15T05:37:42.890Z,9.80
2022-11-15T05:40:09.636Z,9.50
2022-11-15T05:42:36.086Z,9.10
2022-11-15T05:45:07.354Z,8.97
2022-11-15T05:47:35.003Z,8.43
2022-11-15T05:50:01.649Z,8.53
2022-11-15T05:52:31.275Z,9.87
2022-11-15T05:54:59.074Z,10.83
2022-11-15T05:57:25.491Z,8.83
2022-11-15T05:59:52.121Z,7.77
2022-11-15T06:02:18.528Z,9.53
2022-11-15T06:04:44.918Z,9.53
2022-11-15T06:07:11.309Z,8.13
2022-11-15T06:09:37.700Z,17.47
2022-11-15T06:12:04.735Z,16.10
2022-11-15T06:14:31.074Z,12.70
2022-11-15T06:16:57.497Z,47.53
2022-11-15T06:19:23.951Z,13.27
2022-11-15T06:21:50.564Z,10.83
2022-11-15T06:24:17.211Z,12.13
2022-11-15T06:26:43.541Z,10.87
2022-11-15T06:29:09.900Z,10.90
2022-11-15T06:31:37.444Z,10.10
2022-11-15T06:34:03.844Z,10.60
2022-11-15T06:36:30.225Z,9.50
2022-11-15T06:38:57.464Z,11.10
2022-11-15T06:41:23.852Z,9.90
2022-11-15T06:43:50.421Z,9.13
2022-11-15T06:46:16.767Z,9.60
2022-11-15T06:48:43.131Z,9.40
2022-11-15T06:51:09.586Z,9.83
2022-11-15T06:53:36.358Z,10.10
2022-11-15T06:56:07.191Z,9.67
2022-11-15T06:58:33.891Z,9.63
2022-11-15T07:01:02.000Z,10.93
2022-11-15T07:03:28.634Z,8.17
2022-11-15T07:05:56.656Z,9.00
2022-11-15T07:08:24.056Z,8.67
2022-11-15T07:10:51.160Z,9.10
2022-11-15T07:13:17.527Z,10.80
2022-11-15T07:15:44.039Z,9.93
2022-11-15T07:18:10.371Z,9.50
2022-11-15T07:20:36.755Z,9.40
2022-11-15T07:23:04.413Z,9.23
2022-11-15T07:25:31.178Z,10.97
2022-11-15T07:27:58.685Z,10.33
2022-11-15T07:30:27.223Z,10.10
2022-11-15T07:32:58.047Z,11.10
2022-11-15T07:35:25.167Z,10.23
2022-11-15T07:38:02.250Z,10.70
2022-11-15T07:40:30.738Z,10.07
2022-11-15T07:43:04.569Z,10.20
2022-11-15T07:45:31.432Z,8.67
2022-11-15T07:47:57.976Z,9.23
2022-11-15T07:50:24.871Z,8.27
2022-11-15T07:52:59.024Z,8.87
2022-11-15T07:55:26.728Z,8.37
2022-11-15T07:57:53.128Z,8.23
2022-11-15T08:00:20.184Z,8.40
2022-11-15T08:02:46.790Z,9.27
2022-11-15T08:05:13.493Z,7.90
2022-11-15T08:07:41.380Z,8.80
2022-11-15T08:10:08.928Z,7.37
2022-11-15T08:12:35.806Z,8.97
2022-11-15T08:15:02.353Z,7.33
2022-11-15T08:17:32.903Z,7.67
2022-11-15T08:19:59.682Z,7.40
2022-11-15T08:22:26.105Z,7.47
2022-11-15T08:24:52.560Z,6.37
2022-11-15T08:27:19.003Z,7.67
2022-11-15T08:29:46.293Z,7.40
2022-11-15T08:32:12.852Z,7.63
2022-11-15T08:34:39.550Z,6.33
2022-11-15T08:37:06.121Z,7.95
2022-11-15T08:39:33.055Z,6.68
2022-11-15T08:41:59.690Z,6.93
2022-11-15T08:44:26.304Z,7.25
2022-11-15T08:46:52.827Z,6.85
2022-11-15T08:49:19.491Z,6.72
2022-11-15T08:51:46.241Z,7.43
2022-11-15T08:54:12.744Z,5.78
2022-11-15T08:56:39.216Z,6.15
2022-11-15T08:59:05.633Z,7.23
2022-11-15T09:01:33.542Z,6.22
2022-11-15T09:04:00.161Z,6.00
2022-11-15T09:06:26.674Z,6.13
2022-11-15T09:08:53.397Z,7.10
2022-11-15T09:11:22.271Z,7.07
2022-11-15T09:13:48.850Z,6.60
2022-11-15T09:16:16.850Z,6.33
2022-11-15T09:18:43.689Z,6.97
2022-11-15T09:21:10.639Z,6.78
2022-11-15T09:23:37.317Z,6.90
2022-11-15T09:26:05.361Z,7.03
2022-11-15T09:28:33.255Z,5.78
2022-11-15T09:31:01.831Z,7.18
2022-11-15T09:33:28.542Z,7.05
2022-11-15T09:35:55.654Z,6.55
2022-11-15T09:38:22.198Z,6.30
2022-11-15T09:40:52.642Z,5.93
2022-11-15T09:43:41.810Z,6.93
2022-11-15T09:46:16.913Z,6.63
2022-11-15T09:48:54.597Z,6.68
2022-11-15T09:51:35.348Z,6.25
2022-11-15T09:54:51.509Z,6.78
2022-11-15T09:57:16.211Z,6.15
2022-11-15T09:59:56.993Z,6.43
2022-11-15T10:02:49.884Z,6.43
2022-11-15T10:05:22.095Z,5.82
2022-11-15T10:08:20.870Z,6.45
2022-11-15T10:11:05.016Z,7.43
2022-11-15T10:13:42.427Z,6.65
2022-11-15T10:16:20.108Z,6.22
2022-11-15T10:18:52.677Z,6.28
2022-11-15T10:21:22.569Z,5.38
2022-11-15T10:23:49.611Z,5.50
2022-11-15T10:26:17.886Z,5.60
2022-11-15T10:28:44.394Z,6.43
2022-11-15T10:31:26.852Z,6.65
2022-11-15T10:34:06.968Z,6.07
2022-11-15T10:36:33.528Z,7.07
2022-11-15T10:39:00.073Z,6.55
2022-11-15T10:41:32.449Z,6.78
2022-11-15T10:44:08.269Z,6.30
2022-11-15T10:46:51.676Z,6.07
2022-11-15T10:49:23.229Z,6.60
2022-11-15T10:51:50.699Z,5.57
2022-11-15T10:54:30.732Z,5.43
2022-11-15T10:56:59.750Z,6.50
2022-11-15T10:59:38.798Z,5.60
2022-11-15T11:02:30.791Z,6.40
2022-11-15T11:04:57.582Z,6.55
2022-11-15T11:07:27.742Z,5.65
2022-11-15T11:10:02.726Z,6.50
2022-11-15T11:12:32.424Z,5.83
2022-11-15T11:15:06.873Z,5.78
2022-11-15T11:18:01.166Z,6.60
2022-11-15T11:20:43.180Z,5.43
2022-11-15T11:23:39.893Z,4.95
2022-11-15T11:26:12.438Z,5.10
2022-11-15T11:28:41.295Z,6.85
2022-11-15T11:31:37.085Z,5.70
2022-11-15T11:34:46.539Z,6.13
2022-11-15T11:37:25.567Z,6.03
2022-11-15T11:40:00.136Z,6.40
2022-11-15T11:42:48.503Z,6.43
2022-11-15T11:45:14.916Z,5.10
2022-11-15T11:47:55.375Z,5.30
2022-11-15T11:50:26.239Z,5.82
2022-11-15T11:53:14.003Z,6.78
2022-11-15T11:55:44.709Z,5.00
2022-11-15T11:58:16.941Z,5.72
2022-11-15T12:00:51.931Z,6.03
2022-11-15T12:03:57.899Z,6.63
2022-11-15T12:06:50.602Z,6.38
2022-11-15T12:09:22.356Z,6.15
2022-11-15T12:12:13.535Z,6.20
2022-11-15T12:14:58.274Z,5.40
2022-11-15T12:17:26.987Z,5.95
2022-11-15T12:19:57.557Z,5.15
2022-11-15T12:22:34.606Z,6.50
2022-11-15T12:25:09.825Z,5.47
2022-11-15T12:27:41.181Z,5.93
2022-11-15T12:30:19.656Z,5.90
2022-11-15T12:32:58.824Z,5.75
2022-11-15T12:35:38.500Z,6.38
2022-11-15T12:38:05.354Z,6.35
2022-11-15T12:40:35.482Z,5.80
2022-11-15T12:43:35.566Z,5.50
2022-11-15T12:46:05.394Z,5.15
2022-11-15T12:48:38.424Z,5.85
2022-11-15T12:51:05.555Z,5.47
2022-11-15T12:53:33.799Z,6.13
2022-11-15T12:56:18.842Z,5.88
2022-11-15T12:58:52.787Z,5.38
2022-11-15T13:01:31.966Z,5.75
2022-11-15T13:04:20.647Z,6.20
2022-11-15T13:06:52.284Z,5.10
2022-11-15T13:09:37.266Z,5.78
2022-11-15T13:12:22.579Z,5.55
2022-11-15T13:14:57.440Z,5.53
2022-11-15T13:17:34.444Z,5.75
2022-11-15T13:20:08.715Z,5.38
2022-11-15T13:22:53.008Z,4.72
2022-11-15T13:25:40.978Z,5.95
2022-11-15T13:28:16.546Z,5.28
2022-11-15T13:30:59.458Z,5.68
2022-11-15T13:33:36.215Z,6.15
2022-11-15T13:36:24.373Z,5.85
2022-11-15T13:39:05.697Z,5.68
2022-11-15T13:41:37.365Z,5.37
2022-11-15T13:44:04.882Z,6.00
2022-11-15T13:46:34.684Z,6.20
2022-11-15T13:49:05.951Z,6.20
2022-11-15T13:51:48.972Z,6.30
2022-11-15T13:54:19.667Z,5.88
2022-11-15T13:56:56.807Z,6.37
2022-11-15T13:59:27.381Z,5.95
2022-11-15T14:01:55.499Z,5.45
2022-11-15T14:04:25.703Z,6.05
2022-11-15T14:06:54.920Z,5.47
2022-11-15T14:09:38.578Z,5.78
2022-11-15T14:12:30.245Z,6.25
2022-11-15T14:14:58.091Z,6.07
2022-11-15T14:17:30.399Z,6.10
2022-11-15T14:19:58.176Z,5.93
2022-11-15T14:22:29.481Z,6.30
2022-11-15T14:25:11.270Z,5.80
2022-11-15T14:27:37.770Z,5.77
2022-11-15T14:30:04.977Z,5.40
2022-11-15T14:32:44.313Z,6.20
2022-11-15T14:35:16.355Z,6.20
2022-11-15T14:37:42.890Z,6.73
2022-11-15T14:40:12.812Z,5.90
2022-11-15T14:42:39.375Z,6.70
2022-11-15T14:45:17.334Z,6.83
2022-11-15T14:47:44.032Z,7.00
2022-11-15T14:50:15.102Z,6.90
2022-11-15T14:52:41.704Z,6.60
2022-11-15T14:55:26.506Z,5.87
2022-11-15T14:57:55.921Z,6.03
2022-11-15T15:00:22.731Z,6.60
2022-11-15T15:02:49.928Z,6.70
2022-11-15T15:05:21.810Z,7.70
2022-11-15T15:07:48.902Z,6.63
2022-11-15T15:13:04.242Z,5.53
2022-11-15T15:15:36.107Z,6.20
2022-11-15T15:18:03.730Z,7.33
2022-11-15T15:20:30.458Z,6.57
2022-11-15T15:22:56.933Z,7.23
2022-11-15T15:25:36.027Z,6.60
2022-11-15T15:28:03.266Z,7.03
2022-11-15T15:30:31.205Z,6.17
2022-11-15T15:32:57.745Z,8.13
2022-11-15T15:35:24.646Z,7.63
2022-11-15T15:37:52.115Z,6.60
2022-11-15T15:40:21.465Z,7.00
2022-11-15T15:42:51.561Z,7.07
2022-11-15T15:45:19.168Z,7.30
2022-11-15T15:47:46.803Z,7.33
2022-11-15T15:50:19.245Z,6.50
2022-11-15T15:52:45.683Z,7.50
2022-11-15T15:55:12.257Z,7.90
2022-11-15T15:57:38.754Z,6.97
2022-11-15T16:00:06.326Z,7.00
2022-11-15T16:02:36.315Z,6.67
2022-11-15T16:05:07.650Z,8.27
2022-11-15T16:07:34.699Z,7.47
2022-11-15T16:10:01.916Z,7.83
2022-11-15T16:12:36.095Z,6.73
2022-11-15T16:15:03.619Z,7.67
2022-11-15T16:17:34.457Z,7.53
2022-11-15T16:20:01.513Z,6.90
2022-11-15T16:22:30.132Z,7.20
2022-11-15T16:24:57.272Z,7.50
2022-11-15T16:27:23.919Z,8.03
2022-11-15T16:29:50.525Z,6.73
2022-11-15T16:32:17.214Z,6.93
2022-11-15T16:34:48.553Z,6.87
2022-11-15T16:37:23.169Z,7.63
2022-11-15T16:39:49.789Z,7.97
2022-11-15T16:42:16.355Z,7.80
2022-11-15T16:44:43.017Z,6.10
2022-11-15T16:47:20.025Z,7.57
2022-11-15T16:49:46.863Z,7.27
2022-11-15T16:52:16.413Z,7.93
2022-11-15T16:54:45.228Z,7.33
2022-11-15T16:57:11.730Z,7.20
2022-11-15T16:59:38.584Z,7.70
2022-11-15T17:02:10.197Z,7.97
2022-11-15T17:04:36.701Z,7.27
2022-11-15T17:07:03.138Z,7.87
2022-11-15T17:09:29.665Z,8.20
2022-11-15T17:11:56.136Z,7.30
2022-11-15T17:14:25.667Z,8.03
2022-11-15T17:16:52.189Z,7.43
2022-11-15T17:19:21.074Z,8.20
2022-11-15T17:21:49.506Z,6.97
2022-11-15T17:24:17.205Z,6.97
2022-11-15T17:26:43.690Z,8.33
2022-11-15T17:29:10.212Z,7.53
2022-11-15T17:31:37.562Z,6.80
2022-11-15T17:34:05.708Z,7.70
2022-11-15T17:36:32.635Z,8.90
2022-11-15T17:39:00.011Z,7.50
2022-11-15T17:41:27.204Z,7.63
2022-11-15T17:43:53.646Z,8.10
2022-11-15T17:46:21.360Z,9.13
2022-11-15T17:48:48.515Z,8.60
2022-11-15T17:51:17.046Z,8.70
2022-11-15T17:53:47.389Z,8.47
2022-11-15T17:56:22.034Z,7.13
2022-11-15T17:58:50.361Z,7.87
2022-11-15T18:01:22.285Z,7.27
2022-11-15T18:03:49.270Z,7.70
2022-11-15T18:06:16.947Z,8.50
2022-11-15T18:08:44.818Z,7.77
2022-11-15T18:11:13.786Z,9.30
2022-11-15T18:13:42.331Z,9.23
2022-11-15T18:16:14.092Z,9.57
2022-11-15T18:18:41.947Z,8.73
2022-11-15T18:21:16.912Z,9.27
2022-11-15T18:23:43.773Z,9.77
2022-11-15T18:26:13.543Z,8.30
2022-11-15T18:28:42.319Z,9.70
2022-11-15T18:31:16.381Z,8.57
2022-11-15T18:33:43.626Z,7.60
2022-11-15T18:36:12.842Z,8.77
2022-11-15T18:38:40.120Z,8.00
2022-11-15T18:41:07.528Z,8.17
2022-11-15T18:43:34.925Z,7.23
2022-11-15T18:46:09.879Z,7.00
2022-11-15T18:48:39.646Z,7.00
2022-11-15T18:51:11.353Z,8.20
2022-11-15T18:53:38.469Z,7.13
2022-11-15T18:56:09.134Z,7.77
2022-11-15T18:58:38.579Z,7.77
2022-11-15T19:01:08.345Z,7.10
2022-11-15T19:03:39.396Z,7.40
2022-11-15T19:06:11.863Z,7.17
2022-11-15T19:08:39.151Z,6.93
2022-11-15T19:11:07.748Z,8.23
2022-11-15T19:13:35.043Z,7.83
2022-11-15T19:16:03.516Z,8.97
2022-11-15T19:18:31.038Z,7.13
2022-11-15T19:21:05.043Z,7.47
2022-11-15T19:23:36.580Z,6.73
2022-11-15T19:26:04.940Z,6.93
2022-11-15T19:28:31.739Z,6.60
2022-11-15T19:31:07.289Z,7.47
2022-11-15T19:33:35.377Z,7.77
2022-11-15T19:36:03.350Z,6.30
2022-11-15T19:38:34.307Z,8.20
2022-11-15T19:41:02.226Z,6.97
2022-11-15T19:43:29.460Z,8.53
2022-11-15T19:46:02.119Z,8.07
2022-11-15T19:48:31.485Z,6.93
2022-11-15T19:51:11.866Z,6.77
2022-11-15T19:53:38.761Z,7.37
2022-11-15T19:56:07.901Z,7.30
2022-11-15T19:58:34.759Z,7.77
2022-11-15T20:01:10.292Z,7.60
2022-11-15T20:03:38.682Z,6.67
2022-11-15T20:06:07.474Z,7.07
2022-11-15T20:08:34.667Z,6.20
2022-11-15T20:11:02.117Z,7.30
2022-11-15T20:13:29.230Z,6.97
2022-11-15T20:15:55.675Z,7.03
2022-11-15T20:18:22.893Z,5.80
2022-11-15T20:20:50.247Z,7.10
2022-11-15T20:23:17.994Z,6.03
2022-11-15T20:25:46.418Z,7.37
2022-11-15T20:28:19.882Z,6.33
2022-11-15T20:30:47.566Z,5.40
2022-11-15T20:33:14.797Z,5.63
2022-11-15T20:35:41.467Z,6.30
2022-11-15T20:38:08.235Z,5.80
2022-11-15T20:40:34.948Z,5.67
2022-11-15T20:43:01.524Z,6.03
2022-11-15T20:45:27.979Z,5.97
2022-11-15T20:47:58.187Z,6.07
2022-11-15T20:50:41.443Z,6.00
2022-11-15T20:53:09.118Z,5.47
2022-11-15T20:55:40.879Z,5.23
2022-11-15T20:58:08.421Z,6.60
2022-11-15T21:00:36.755Z,5.00
2022-11-15T21:03:07.161Z,5.70
2022-11-15T21:05:42.424Z,4.53
2022-11-15T21:08:10.262Z,5.30
2022-11-15T21:10:55.284Z,6.60
2022-11-15T21:13:22.297Z,6.20
2022-11-15T21:15:48.898Z,5.13
2022-11-15T21:18:15.648Z,5.60
2022-11-15T21:20:42.476Z,4.87
2022-11-15T21:23:09.164Z,5.10
2022-11-15T21:25:35.693Z,4.33
2022-11-15T21:28:02.195Z,5.07
2022-11-15T21:30:28.625Z,5.10
2022-11-15T21:32:55.101Z,6.13
2022-11-15T21:35:21.844Z,4.93
2022-11-15T21:37:53.350Z,5.37
2022-11-15T21:40:22.745Z,5.03
2022-11-15T21:42:49.168Z,4.37
2022-11-15T21:45:15.695Z,4.77
2022-11-15T21:47:45.978Z,4.97
2022-11-15T21:50:13.717Z,5.13
2022-11-15T21:52:40.974Z,4.43
2022-11-15T21:55:08.450Z,4.87
2022-11-15T21:57:35.002Z,4.07
2022-11-15T22:00:20.277Z,4.33
2022-11-15T22:02:46.996Z,5.33
2022-11-15T22:05:13.671Z,5.10
2022-11-15T22:07:40.096Z,4.83
2022-11-15T22:10:08.035Z,4.27
2022-11-15T22:12:34.588Z,4.07
2022-11-15T22:15:01.026Z,4.40
2022-11-15T22:17:47.451Z,4.20
2022-11-15T22:20:37.696Z,4.43
2022-11-15T22:23:02.159Z,4.23
2022-11-15T22:25:29.679Z,3.57
2022-11-15T22:27:56.718Z,4.67
2022-11-15T22:30:24.106Z,4.63
2022-11-15T22:32:50.576Z,4.80
2022-11-15T22:35:17.172Z,3.10
2022-11-15T22:37:43.674Z,4.90
2022-11-15T22:40:10.404Z,4.43
2022-11-15T22:42:36.860Z,4.87
2022-11-15T22:45:03.923Z,4.63
2022-11-15T22:47:30.421Z,4.33
2022-11-15T22:49:56.899Z,4.73
2022-11-15T22:52:23.330Z,3.87
2022-11-15T22:54:49.886Z,4.17
2022-11-15T22:57:16.373Z,4.10
2022-11-15T22:59:42.936Z,4.40
2022-11-15T23:02:09.465Z,5.30
2022-11-15T23:04:35.982Z,5.03
2022-11-15T23:07:02.541Z,4.17
2022-11-15T23:09:29.116Z,4.27
2022-11-15T23:12:14.249Z,4.00
2022-11-15T23:14:40.767Z,4.30
2022-11-15T23:17:07.246Z,3.53
2022-11-15T23:19:33.940Z,4.80
2022-11-15T23:22:18.765Z,4.37
2022-11-15T23:24:45.250Z,3.50
2022-11-15T23:27:15.126Z,4.50
2022-11-15T23:30:00.190Z,3.80
2022-11-15T23:32:45.392Z,3.67
2022-11-15T23:35:11.906Z,4.00
2022-11-15T23:37:38.374Z,4.23
2022-11-15T23:40:05.644Z,3.87
2022-11-15T23:42:32.181Z,3.73
2022-11-15T23:44:58.652Z,3.10
2022-11-15T23:47:25.215Z,4.40
2022-11-15T23:49:51.994Z,3.60
2022-11-15T23:52:18.706Z,4.23
2022-11-15T23:54:45.312Z,3.50
2022-11-15T23:57:12.473Z,3.93
2022-11-15T23:59:40.078Z,4.67
